createdAt,value
2022-08-05T00:04:08.184Z,66.28
2022-08-05T00:09:12.880Z,66.32
2022-08-05T00:14:17.086Z,66.36
2022-08-05T00:19:19.447Z,66.53
2022-08-05T00:24:31.064Z,66.72
2022-08-05T00:29:38.041Z,67.22
2022-08-05T00:35:03.740Z,67.26
2022-08-05T00:40:07.169Z,66.61
2022-08-05T00:45:13.469Z,66.82
2022-08-05T00:50:15.766Z,67.08
2022-08-05T00:55:18.895Z,67.17
2022-08-05T01:00:21.946Z,67.68
2022-08-05T01:05:28.028Z,68.04
2022-08-05T01:11:01.126Z,67.59
2022-08-05T01:16:05.281Z,67.46
2022-08-05T01:21:38.710Z,68.12
2022-08-05T01:26:59.430Z,68.30
2022-08-05T01:32:06.937Z,68.44
2022-08-05T01:37:39.701Z,69.41
2022-08-05T01:42:47.829Z,69.43
2022-08-05T01:47:50.298Z,69.62
2022-08-05T01:53:00.605Z,70.13
2022-08-05T01:58:10.983Z,69.33
2022-08-05T02:03:24.180Z,70.35
2022-08-05T02:08:33.201Z,69.81
2022-08-05T02:13:53.466Z,70.58
2022-08-05T02:19:01.343Z,70.29
2022-08-05T02:24:11.319Z,70.71
2022-08-05T02:29:21.682Z,70.24
2022-08-05T02:34:30.224Z,71.76
2022-08-05T02:39:36.502Z,71.66
2022-08-05T02:44:44.544Z,71.61
2022-08-05T02:49:46.832Z,70.85
2022-08-05T02:54:50.678Z,72.13
2022-08-05T02:59:55.115Z,72.20
2022-08-05T03:04:58.196Z,72.60
2022-08-05T03:10:00.250Z,73.09
2022-08-05T03:15:06.910Z,73.28
2022-08-05T03:20:13.526Z,72.76
2022-08-05T03:25:33.343Z,73.42
2022-08-05T03:30:41.059Z,72.93
2022-08-05T03:35:45.739Z,73.42
2022-08-05T03:40:48.573Z,73.01
2022-08-05T03:45:57.431Z,73.44
2022-08-05T03:52:39.198Z,73.15
2022-08-05T03:56:42.955Z,73.13
2022-08-05T04:01:50.899Z,73.11
2022-08-05T04:06:54.619Z,72.36
2022-08-05T04:11:58.146Z,72.69
2022-08-05T04:17:00.340Z,72.27
2022-08-05T04:22:05.864Z,68.46
2022-08-05T04:27:13.193Z,63.69
2022-08-05T04:32:20.033Z,57.15
2022-08-05T04:38:01.391Z,53.00
2022-08-05T04:42:55.361Z,48.65
2022-08-05T04:48:18.501Z,45.89
2022-08-05T04:53:33.640Z,43.30
2022-08-05T04:58:37.483Z,42.43
2022-08-05T05:03:42.153Z,42.23
2022-08-05T05:08:44.457Z,40.89
2022-08-05T05:13:52.677Z,40.60
2022-08-05T05:19:18.873Z,41.92
2022-08-05T05:24:21.479Z,45.43
2022-08-05T05:29:23.423Z,48.53
2022-08-05T05:34:26.982Z,50.88
2022-08-05T05:39:34.480Z,52.88
2022-08-05T05:44:42.986Z,54.42
2022-08-05T05:49:48.067Z,55.26
2022-08-05T05:55:00.684Z,55.93
2022-08-05T06:00:10.225Z,56.70
2022-08-05T06:05:27.817Z,57.28
2022-08-05T06:10:36.421Z,57.42
2022-08-05T06:16:29.065Z,57.52
2022-08-05T06:21:00.908Z,57.81
2022-08-05T06:26:21.031Z,57.73
2022-08-05T06:31:30.577Z,57.77
2022-08-05T06:36:53.579Z,57.63
2022-08-05T06:42:01.658Z,57.28
2022-08-05T06:47:06.282Z,56.81
2022-08-05T06:52:37.650Z,56.57
2022-08-05T06:58:02.466Z,56.38
2022-08-05T07:03:00.202Z,56.53
2022-08-05T07:08:05.578Z,56.36
2022-08-05T07:13:58.255Z,55.75
2022-08-05T07:18:52.946Z,55.39
2022-08-05T07:23:57.670Z,54.60
2022-08-05T07:29:10.144Z,54.71
2022-08-05T07:34:21.201Z,53.92
2022-08-05T07:40:26.933Z,53.36
2022-08-05T07:44:51.410Z,53.27
2022-08-05T07:49:54.706Z,52.89
2022-08-05T07:54:57.124Z,52.96
2022-08-05T08:00:00.188Z,53.05
2022-08-05T08:05:11.412Z,52.50
2022-08-05T08:10:13.598Z,51.93
2022-08-05T08:15:28.087Z,52.64
2022-08-05T08:21:02.098Z,51.72
2022-08-05T08:26:09.131Z,51.29
2022-08-05T08:31:15.009Z,50.71
2022-08-05T08:36:40.183Z,50.21
2022-08-05T08:42:08.958Z,48.98
2022-08-05T08:48:05.583Z,48.35
2022-08-05T08:52:54.047Z,49.33
2022-08-05T08:58:03.312Z,49.15
2022-08-05T09:03:06.955Z,48.29
2022-08-05T09:08:09.931Z,47.86
2022-08-05T09:13:16.484Z,47.11
2022-08-05T09:18:19.286Z,46.68
2022-08-05T09:23:22.101Z,46.79
2022-08-05T09:28:32.350Z,46.59
2022-08-05T09:33:50.898Z,46.38
2022-08-05T09:39:18.135Z,46.15
2022-08-05T09:44:40.150Z,45.53
2022-08-05T09:50:01.113Z,44.55
2022-08-05T09:55:57.837Z,43.88
2022-08-05T10:00:30.687Z,42.38
2022-08-05T10:05:33.942Z,40.42
2022-08-05T10:10:48.302Z,42.04
2022-08-05T10:15:55.336Z,41.05
2022-08-05T10:21:08.473Z,41.16
2022-08-05T10:26:15.585Z,39.07
2022-08-05T10:32:47.206Z,38.32
2022-08-05T10:36:45.871Z,37.99
2022-08-05T10:42:11.497Z,38.55
2022-08-05T10:47:26.107Z,37.26
2022-08-05T10:52:53.537Z,37.70
2022-08-05T10:58:11.953Z,38.47
2022-08-05T11:03:25.731Z,36.18
2022-08-05T11:08:37.918Z,36.38
2022-08-05T11:13:54.784Z,36.85
2022-08-05T11:20:16.949Z,35.95
2022-08-05T11:26:05.070Z,35.13
2022-08-05T11:30:59.468Z,34.11
2022-08-05T11:36:08.462Z,32.33
2022-08-05T11:41:56.266Z,33.21
2022-08-05T11:47:09.911Z,33.74
2022-08-05T11:52:14.686Z,31.95
2022-08-05T11:58:08.719Z,32.68
2022-08-05T12:02:53.963Z,34.06
2022-08-05T12:08:03.664Z,32.69
2022-08-05T12:13:47.786Z,32.93
2022-08-05T12:18:48.978Z,32.26
2022-08-05T12:24:07.982Z,33.86
2022-08-05T12:29:22.554Z,32.56
2022-08-05T12:34:35.709Z,32.67
2022-08-05T12:39:39.206Z,32.45
2022-08-05T12:44:43.185Z,30.42
2022-08-05T12:50:04.009Z,30.79
2022-08-05T12:55:22.100Z,33.43
2022-08-05T13:02:02.060Z,31.46
2022-08-05T13:05:58.110Z,29.29
2022-08-05T13:11:04.239Z,30.75
2022-08-05T13:16:16.655Z,32.47
2022-08-05T13:21:22.621Z,31.31
2022-08-05T13:26:31.223Z,29.77
2022-08-05T13:31:34.027Z,29.46
2022-08-05T13:36:57.139Z,31.05
2022-08-05T13:41:59.053Z,30.37
2022-08-05T13:47:04.934Z,30.24
2022-08-05T13:52:29.604Z,31.35
2022-08-05T13:57:50.775Z,32.08
2022-08-05T14:02:55.531Z,32.37
2022-08-05T14:08:03.252Z,29.32
2022-08-05T14:13:09.509Z,30.89
2022-08-05T14:18:18.341Z,27.37
2022-08-05T14:23:36.431Z,28.02
2022-08-05T14:28:52.183Z,29.94
2022-08-05T14:33:59.850Z,29.65
2022-08-05T14:39:05.395Z,29.01
2022-08-05T14:44:20.023Z,26.41
2022-08-05T14:49:56.291Z,26.57
2022-08-05T14:54:52.669Z,27.43
2022-08-05T14:59:58.524Z,30.60
2022-08-05T15:05:00.771Z,31.07
2022-08-05T15:10:12.080Z,30.26
2022-08-05T15:15:15.776Z,30.13
2022-08-05T15:20:19.371Z,31.02
2022-08-05T15:25:51.501Z,30.90
2022-08-05T15:30:53.013Z,30.97
2022-08-05T15:35:55.438Z,32.82
2022-08-05T15:41:23.160Z,30.08
2022-08-05T15:46:25.246Z,29.77
2022-08-05T15:52:09.706Z,29.45
2022-08-05T15:56:50.109Z,31.60
2022-08-05T16:01:54.481Z,28.92
2022-08-05T16:07:01.584Z,28.98
2022-08-05T16:12:03.828Z,29.22
2022-08-05T16:17:07.979Z,28.76
2022-08-05T16:22:15.296Z,27.80
2022-08-05T16:27:17.435Z,28.66
2022-08-05T16:32:28.722Z,29.94
2022-08-05T16:38:03.685Z,32.47
2022-08-05T16:42:56.580Z,32.30
2022-08-05T16:48:02.920Z,35.16
2022-08-05T16:53:12.384Z,37.95
2022-08-05T16:58:26.370Z,38.42
2022-08-05T17:03:28.530Z,36.15
2022-08-05T17:08:52.988Z,38.86
2022-08-05T17:14:05.582Z,39.84
2022-08-05T17:19:09.559Z,40.23
2022-08-05T17:24:28.393Z,37.48
2022-08-05T17:29:41.164Z,36.08
2022-08-05T17:34:48.230Z,36.05
2022-08-05T17:39:55.747Z,37.23
2022-08-05T17:44:58.174Z,38.08
2022-08-05T17:50:10.174Z,38.42
2022-08-05T17:55:12.988Z,38.59
2022-08-05T18:00:15.378Z,41.07
2022-08-05T18:05:18.888Z,41.97
2022-08-05T18:10:21.717Z,43.48
2022-08-05T18:15:26.753Z,45.03
2022-08-05T18:20:32.098Z,45.16
2022-08-05T18:25:34.621Z,45.12
2022-08-05T18:30:39.166Z,47.96
2022-08-05T18:35:59.682Z,48.62
2022-08-05T18:41:53.758Z,51.55
2022-08-05T18:46:50.486Z,49.80
2022-08-05T18:52:11.035Z,48.74
2022-08-05T18:57:15.322Z,48.37
2022-08-05T19:02:26.766Z,49.21
2022-08-05T19:07:36.308Z,50.02
2022-08-05T19:12:48.435Z,50.64
2022-08-05T19:18:08.689Z,51.09
2022-08-05T19:24:04.286Z,51.28
2022-08-05T19:28:44.080Z,51.77
2022-08-05T19:33:56.439Z,52.27
2022-08-05T19:39:02.015Z,52.82
2022-08-05T19:44:13.702Z,53.09
2022-08-05T19:49:26.024Z,53.22
2022-08-05T19:54:39.501Z,53.56
2022-08-05T19:59:54.549Z,53.63
2022-08-05T20:05:43.225Z,54.15
2022-08-05T20:11:01.317Z,54.24
2022-08-05T20:16:07.801Z,54.32
2022-08-05T20:21:11.413Z,54.18
2022-08-05T20:26:19.598Z,53.91
2022-08-05T20:31:36.861Z,53.96
2022-08-05T20:36:51.439Z,54.13
2022-08-05T20:42:13.437Z,54.49
2022-08-05T20:47:32.220Z,54.74
2022-08-05T20:52:46.401Z,55.18
2022-08-05T20:57:53.851Z,55.60
2022-08-05T21:03:08.860Z,56.04
2022-08-05T21:08:14.931Z,56.36
2022-08-05T21:13:47.909Z,56.76
2022-08-05T21:19:03.625Z,56.94
2022-08-05T21:24:19.519Z,57.58
2022-08-05T21:29:40.594Z,58.08
2022-08-05T21:35:08.887Z,58.69
2022-08-05T21:40:26.247Z,59.36
2022-08-05T21:45:51.816Z,60.17
2022-08-05T21:50:53.207Z,61.12
2022-08-05T21:56:09.655Z,61.21
2022-08-05T22:01:23.935Z,61.24
2022-08-05T22:06:34.887Z,61.43
2022-08-05T22:11:37.848Z,61.96
2022-08-05T22:16:41.770Z,63.81
2022-08-05T22:21:53.991Z,67.27
2022-08-05T22:27:17.390Z,69.60
2022-08-05T22:32:21.609Z,71.24
2022-08-05T22:37:26.256Z,71.99
2022-08-05T22:42:57.913Z,72.03
2022-08-05T22:48:01.887Z,73.07
2022-08-05T22:53:05.751Z,73.80
2022-08-05T22:58:14.701Z,73.24
2022-08-05T23:03:19.876Z,74.07
2022-08-05T23:08:42.265Z,74.85
2022-08-05T23:13:45.167Z,75.16
2022-08-05T23:18:53.483Z,75.78
2022-08-05T23:23:57.798Z,76.08
2022-08-05T23:29:00.145Z,76.35
2022-08-05T23:34:06.768Z,76.76
2022-08-05T23:39:09.322Z,78.18
2022-08-05T23:44:13.436Z,78.14
2022-08-05T23:49:23.669Z,78.61
2022-08-05T23:54:38.073Z,79.26
